Huxford, Alabama
Current Conditions -  °F | °C
As of 10:53 AM on Thursday 30 Oct 2014 (Local Time) from KGZH Reporting Station
Clear Clear  
Wind Chill: 67°   Ceiling: Unl
Heat Index: 67°   Visibility: 10mi
Dew Point: 43°   Wind: 13mph
Humidity: 42%   Direction: 40°NE
Pressure: 30.12"   Gusts: 21mph
Location:  31.22°N, 87.46°W
Report Text: KGZH 301553Z AUTO 04011G18KT 10SM CLR 19/06 A3012 RMK AO2 SLP196 T01940061
Loading
Personal Weather Stations






























Interactive Weather Map
Tropical Storm Tracking
New forecast layout! Learn more

10-Day Weather Forecast

Advertisements
Track Severe Weather on mobile